createdAt,value
2018-03-17T00:04:00.457Z,7.09
2018-03-17T00:09:51.352Z,3.48
2018-03-17T00:15:42.268Z,7.16
2018-03-17T00:21:33.191Z,16.8
2018-03-17T00:27:24.121Z,19.03
2018-03-17T00:33:14.937Z,16.09
2018-03-17T00:39:05.862Z,15.84
2018-03-17T00:44:56.732Z,9.94
2018-03-17T00:50:47.637Z,8.64
2018-03-17T00:56:38.557Z,10.66
2018-03-17T01:02:29.448Z,5.05
2018-03-17T01:08:20.322Z,2.17
2018-03-17T01:14:11.226Z,1.85
2018-03-17T01:20:02.274Z,1.46
2018-03-17T01:25:53.042Z,1.42
2018-03-17T01:31:43.922Z,1.11
2018-03-17T01:37:34.806Z,1.08
2018-03-17T01:43:25.793Z,1.04
2018-03-17T01:49:16.659Z,1.62
2018-03-17T01:55:07.498Z,2.96
2018-03-17T02:00:58.410Z,2.3
2018-03-17T02:06:49.426Z,2.17
2018-03-17T02:12:40.251Z,1.82
2018-03-17T02:18:31.143Z,2.11
2018-03-17T02:24:21.980Z,2.62
2018-03-17T02:30:12.902Z,2.12
2018-03-17T02:36:03.858Z,1.9
2018-03-17T02:41:54.667Z,1.93
2018-03-17T02:47:45.607Z,1.73
2018-03-17T02:53:36.508Z,1.75
2018-03-17T02:59:27.389Z,1.77
2018-03-17T03:05:18.317Z,1.5
2018-03-17T03:11:09.210Z,1.36
2018-03-17T03:17:00.122Z,1.38
2018-03-17T03:22:51.018Z,1.16
2018-03-17T03:28:41.900Z,1.23
2018-03-17T03:34:32.757Z,1.2
2018-03-17T03:40:23.645Z,3.12
2018-03-17T03:46:14.545Z,1.36
2018-03-17T03:52:05.486Z,2.06
2018-03-17T03:57:56.329Z,1.7
2018-03-17T04:03:47.217Z,6.75
2018-03-17T04:09:38.110Z,5.08
2018-03-17T04:15:29.003Z,6.8
2018-03-17T04:21:19.889Z,6.14
2018-03-17T04:27:10.789Z,6.73
2018-03-17T04:33:01.667Z,6.45
2018-03-17T04:38:52.592Z,6.3
2018-03-17T04:44:43.456Z,4.96
2018-03-17T04:50:34.382Z,4.19
2018-03-17T04:56:25.311Z,2.29
2018-03-17T05:02:16.160Z,3.41
2018-03-17T05:08:07.087Z,4.55
2018-03-17T05:13:57.963Z,4.61
2018-03-17T05:19:48.883Z,5.69
2018-03-17T05:25:39.782Z,5.62
2018-03-17T05:31:30.631Z,5.27
2018-03-17T05:37:21.572Z,5.76
2018-03-17T05:43:12.449Z,5.8
2018-03-17T05:49:03.316Z,6.32
2018-03-17T05:54:54.237Z,6.98
2018-03-17T06:00:45.134Z,7.19
2018-03-17T06:06:36.037Z,7.25
2018-03-17T06:12:26.926Z,8.77
2018-03-17T06:18:17.788Z,7.24
2018-03-17T06:24:08.733Z,5.99
2018-03-17T06:29:59.597Z,4.29
2018-03-17T06:35:50.456Z,5.11
2018-03-17T06:41:41.451Z,3.19
2018-03-17T06:47:32.333Z,3.29
2018-03-17T06:53:23.165Z,2.71
2018-03-17T06:59:14.022Z,2.39
2018-03-17T07:05:04.976Z,2.81
2018-03-17T07:10:55.907Z,2.5
2018-03-17T07:16:46.717Z,2.27
2018-03-17T07:22:37.584Z,2.19
2018-03-17T07:28:28.503Z,2.39
2018-03-17T07:34:19.429Z,2.4
2018-03-17T07:40:10.275Z,2.82
2018-03-17T07:46:01.164Z,3.1
2018-03-17T07:51:52.130Z,2.65
2018-03-17T07:57:42.978Z,2.89
2018-03-17T08:03:33.862Z,2.43
2018-03-17T08:09:24.716Z,2.21
2018-03-17T08:15:15.675Z,2
2018-03-17T08:21:06.542Z,2.37
2018-03-17T08:26:57.406Z,2.22
2018-03-17T08:32:48.375Z,2.25
2018-03-17T08:38:39.215Z,2.45
2018-03-17T08:44:30.082Z,7.36
2018-03-17T08:50:21.017Z,3.12
2018-03-17T08:56:11.883Z,1.85
2018-03-17T09:02:02.794Z,1.8
2018-03-17T09:07:53.645Z,1.85
2018-03-17T09:13:44.566Z,2.35
2018-03-17T09:19:35.432Z,2.23
2018-03-17T09:25:26.347Z,2.21
2018-03-17T09:31:17.248Z,1.85
2018-03-17T09:37:08.149Z,2.37
2018-03-17T09:42:59.023Z,2.19
2018-03-17T09:48:49.897Z,2.53
2018-03-17T09:54:40.794Z,3.26
2018-03-17T10:00:31.721Z,2.95
2018-03-17T10:06:22.628Z,3.01
2018-03-17T10:12:13.525Z,2.63
2018-03-17T10:18:04.378Z,3.01
2018-03-17T10:23:55.262Z,3.21
2018-03-17T10:29:46.198Z,3.16
2018-03-17T10:35:37.074Z,2.78
2018-03-17T10:41:27.974Z,6.46
2018-03-17T10:47:18.843Z,4.91
2018-03-17T10:53:09.794Z,4.37
2018-03-17T10:59:00.630Z,3.84
2018-03-17T11:04:51.536Z,12.65
2018-03-17T11:10:42.540Z,5.51
2018-03-17T11:16:33.324Z,3.52
2018-03-17T11:22:24.217Z,4.74
2018-03-17T11:28:15.121Z,3.84
2018-03-17T11:34:06.049Z,11.11
2018-03-17T11:39:56.943Z,3.16
2018-03-17T11:45:47.793Z,2.61
2018-03-17T11:51:38.715Z,2.76
2018-03-17T11:57:29.595Z,2.99
2018-03-17T12:03:20.483Z,2.8
2018-03-17T12:09:11.376Z,2.42
2018-03-17T12:15:02.364Z,2.71
2018-03-17T12:20:53.177Z,2.8
2018-03-17T12:26:44.079Z,2.56
2018-03-17T12:32:34.949Z,2.64
2018-03-17T12:38:25.886Z,2.93
2018-03-17T12:44:16.760Z,3.32
2018-03-17T12:50:07.665Z,2.97
2018-03-17T12:55:58.602Z,2.37
2018-03-17T13:01:49.486Z,2.67
2018-03-17T13:07:40.396Z,2.98
2018-03-17T13:13:31.284Z,2.84
2018-03-17T13:19:22.153Z,2.51
2018-03-17T13:25:13.064Z,2.59
2018-03-17T13:31:03.981Z,1.97
2018-03-17T13:36:54.885Z,1.79
2018-03-17T13:42:45.719Z,2.52
2018-03-17T13:48:36.628Z,1.95
2018-03-17T13:54:27.497Z,1.56
2018-03-17T14:00:18.420Z,1.43
2018-03-17T14:06:09.347Z,1.74
2018-03-17T14:12:00.272Z,1.75
2018-03-17T14:17:51.081Z,2.47
2018-03-17T14:23:42.050Z,1.31
2018-03-17T14:29:32.881Z,1.08
2018-03-17T14:35:23.826Z,1.21
2018-03-17T14:41:14.676Z,1.41
2018-03-17T14:47:05.580Z,1.53
2018-03-17T14:52:56.499Z,1.14
2018-03-17T14:58:47.397Z,1.61
2018-03-17T15:04:38.238Z,1.95
2018-03-17T15:10:29.171Z,3.17
2018-03-17T15:16:20.066Z,1.94
2018-03-17T15:22:10.987Z,1.33
2018-03-17T15:28:01.879Z,1.33
2018-03-17T15:33:52.806Z,2.56
2018-03-17T15:39:43.647Z,1.99
2018-03-17T15:45:34.598Z,2.03
2018-03-17T15:51:25.539Z,1.46
2018-03-17T15:57:16.345Z,1.69
2018-03-17T16:03:07.269Z,3.39
2018-03-17T16:08:58.149Z,3.86
2018-03-17T16:14:49.052Z,2.09
2018-03-17T16:20:39.930Z,2.05
2018-03-17T16:26:30.839Z,2.16
2018-03-17T16:32:21.803Z,1.87
2018-03-17T16:38:12.622Z,2.3
2018-03-17T16:44:03.550Z,2.86
2018-03-17T16:49:54.419Z,2.5
2018-03-17T16:55:45.343Z,1.99
2018-03-17T17:01:36.214Z,2.6
2018-03-17T17:07:27.138Z,2.32
2018-03-17T17:13:18.000Z,2.86
2018-03-17T17:19:08.892Z,2.33
2018-03-17T17:24:59.777Z,2.44
2018-03-17T17:30:50.740Z,1.88
2018-03-17T17:36:41.567Z,2.2
2018-03-17T17:42:32.542Z,2.83
2018-03-17T17:48:23.387Z,3.23
2018-03-17T17:54:14.326Z,3.54
2018-03-17T18:00:05.287Z,5.98
2018-03-17T18:05:56.088Z,4.92
2018-03-17T18:11:46.954Z,3.01
2018-03-17T18:17:37.851Z,5.52
2018-03-17T18:23:28.740Z,3.4
2018-03-17T18:29:19.679Z,5.04
2018-03-17T18:35:10.529Z,3.09
2018-03-17T18:41:01.417Z,4.17
2018-03-17T18:46:52.322Z,2.56
2018-03-17T18:52:43.206Z,3.74
2018-03-17T18:58:34.059Z,6.73
2018-03-17T19:04:24.999Z,2.59
2018-03-17T19:10:15.896Z,2.86
2018-03-17T19:16:06.760Z,3.17
2018-03-17T19:21:57.648Z,3.11
2018-03-17T19:27:48.578Z,2.54
2018-03-17T19:33:39.459Z,2.98
2018-03-17T19:39:30.309Z,3.42
2018-03-17T19:45:21.190Z,4.1
2018-03-17T19:51:12.134Z,3.95
2018-03-17T19:57:02.991Z,4.6
2018-03-17T20:02:53.916Z,4.07
2018-03-17T20:08:44.773Z,4.98
2018-03-17T20:14:35.663Z,4.95
2018-03-17T20:20:26.560Z,4.14
2018-03-17T20:26:17.441Z,5.01
2018-03-17T20:32:08.332Z,4.91
2018-03-17T20:37:59.250Z,8.66
2018-03-17T20:43:50.128Z,10.45
2018-03-17T20:49:41.032Z,5.28
2018-03-17T20:55:31.869Z,9.67
2018-03-17T21:01:22.770Z,7.6
2018-03-17T21:07:13.792Z,3.29
2018-03-17T21:13:04.561Z,3.6
2018-03-17T21:18:55.448Z,7.84
2018-03-17T21:24:46.357Z,37.92
2018-03-17T21:30:37.249Z,12.8
2018-03-17T21:36:28.185Z,9.09
2018-03-17T21:42:19.080Z,8.63
2018-03-17T21:48:09.935Z,7.01
2018-03-17T21:54:00.797Z,8.46
2018-03-17T21:59:51.694Z,8.76
2018-03-17T22:05:42.600Z,6.48
2018-03-17T22:11:33.527Z,5.69
2018-03-17T22:17:24.391Z,10.49
2018-03-17T22:23:15.244Z,7.54
2018-03-17T22:29:06.139Z,6.41
2018-03-17T22:34:57.063Z,4.03
2018-03-17T22:40:48.029Z,3.42
2018-03-17T22:46:38.803Z,2.81
2018-03-17T22:52:29.688Z,2.81
2018-03-17T22:58:20.596Z,2.58
2018-03-17T23:04:11.594Z,7.4
2018-03-17T23:10:02.401Z,4.24
2018-03-17T23:15:53.330Z,2.87
2018-03-17T23:21:44.206Z,4.12
2018-03-17T23:27:35.103Z,7.37
2018-03-17T23:33:25.941Z,5.19
2018-03-17T23:39:16.868Z,4.61
2018-03-17T23:45:07.730Z,3.69
2018-03-17T23:50:58.654Z,5.15
2018-03-17T23:56:49.536Z,4.82
